Time;durP1;ratioP1;P1;durP2;ratioP2;P2;SDS_P1;SDS_P2;PMS_P1;PMS_P2;Temp;Humidity;BMP_temperature;BMP_pressure;BME280_temperature;BME280_humidity;BME280_pressure;Samples;Min_cycle;Max_cycle;Signal;HPM_P1;HPM_P2
2022/06/14 05:31:21;;;;;;;12.58;4.33;;;;;;;23.44;58.43;99545.41;1608457;86;21176;-46
2022/06/14 05:34:06;;;;;;;12.05;4.35;;;;;;;23.72;57.28;99543.65;1586497;90;21123;-44
2022/06/14 05:36:39;;;;;;;13.55;4.72;;;;;;;23.92;57.09;99543.16;1574954;90;21089;-55
2022/06/14 05:39:21;;;;;;;19.05;4.58;;;;;;;24.12;55.84;99536.46;1574737;90;21148;-45
2022/06/14 05:42:09;;;;;;;12.98;4.80;;;;;;;24.26;55.91;99539.55;1544720;92;21096;-54
2022/06/14 05:44:44;;;;;;;11.03;3.80;;;;;;;24.44;55.29;99536.13;1533561;92;21111;-54
2022/06/14 05:47:16;;;;;;;8.88;3.58;;;;;;;24.62;54.93;99534.84;1537769;92;21001;-45
2022/06/14 05:49:57;;;;;;;23.77;4.30;;;;;;;24.78;54.72;99531.47;1505839;93;21096;-46
2022/06/14 05:52:35;;;;;;;12.47;4.83;;;;;;;24.94;54.24;99528.08;1503358;94;21721;-55
2022/06/14 05:55:31;;;;;;;10.90;4.42;;;;;;;25.14;54.54;99529.83;1490188;95;21172;-47
2022/06/14 05:58:47;;;;;;;14.93;4.50;;;;;;;25.36;54.02;99531.32;1517134;94;21136;-56
2022/06/14 06:05:36;;;;;;;;;;;;;;;25.71;50.95;99533.22;1491963;94;21148;-44
2022/06/14 06:08:46;;;;;;;5.35;2.90;;;;;;;25.88;49.16;99526.63;1500267;94;20404;-53
2022/06/14 06:11:23;;;;;;;4.15;2.25;;;;;;;26.00;46.58;99529.23;1511809;91;21167;-55
2022/06/14 06:14:06;;;;;;;7.92;2.00;;;;;;;26.13;43.78;99528.30;1538402;92;21137;-56
2022/06/14 06:19:38;;;;;;;5.60;2.70;;;;;;;26.30;44.01;99537.23;1549050;90;21585;-47
2022/06/14 06:22:36;;;;;;;4.72;2.08;;;;;;;26.39;45.16;99535.20;1565914;90;21499;-46
2022/06/14 06:25:18;;;;;;;3.98;1.87;;;;;;;26.51;42.99;99535.62;1569437;90;21114;-47
2022/06/14 06:27:52;;;;;;;2.95;1.90;;;;;;;26.61;42.61;99526.83;1580598;88;21098;-48
2022/06/14 06:30:36;;;;;;;11.85;2.20;;;;;;;26.71;42.47;99530.51;1567156;90;21031;-45
2022/06/14 06:33:03;;;;;;;3.60;2.05;;;;;;;26.79;43.14;99534.80;1547373;91;21088;-54
2022/06/14 06:35:39;;;;;;;6.30;2.98;;;;;;;26.90;42.79;99529.89;1566169;90;21144;-47
2022/06/14 06:38:28;;;;;;;2.30;1.47;;;;;;;26.99;43.21;99528.68;1555660;90;21079;-45
2022/06/14 06:43:54;;;;;;;3.25;1.87;;;;;;;27.22;41.49;99531.38;1554222;91;21635;-55
2022/06/14 06:46:33;;;;;;;5.12;1.80;;;;;;;27.29;39.45;99537.46;1543799;92;21157;-53
2022/06/14 06:49:21;;;;;;;1.47;1.37;;;;;;;27.34;39.94;99527.70;1554289;90;21823;-44
2022/06/14 06:55:36;;;;;;;3.55;1.42;;;;;;;27.55;38.08;99531.81;1609402;87;21187;-47
2022/06/14 06:58:21;;;;;;;4.72;1.77;;;;;;;27.68;38.58;99537.02;1614717;87;21069;-56
2022/06/14 07:00:48;;;;;;;1.67;1.35;;;;;;;27.78;36.83;99546.06;1636901;86;21531;-47
2022/06/14 07:03:27;;;;;;;1.77;1.57;;;;;;;27.82;36.99;99534.91;1637393;86;21536;-48
2022/06/14 07:05:58;;;;;;;1.87;1.35;;;;;;;27.88;37.53;99549.66;1641399;86;21015;-46
2022/06/14 07:08:53;;;;;;;3.22;1.65;;;;;;;27.95;36.97;99537.91;1641389;86;21375;-46
2022/06/14 07:11:30;;;;;;;2.67;1.67;;;;;;;28.02;37.09;99537.28;1642317;86;21047;-55
2022/06/14 07:14:13;;;;;;;1.77;1.60;;;;;;;28.10;36.72;99544.19;1633687;86;21515;-49
2022/06/14 07:16:44;;;;;;;2.00;1.65;;;;;;;28.15;36.72;99543.81;1633439;86;21011;-52
2022/06/14 07:19:22;;;;;;;5.83;1.40;;;;;;;28.13;36.63;99543.09;1636655;86;21097;-43
2022/06/14 07:22:21;;;;;;;26.23;2.37;;;;;;;28.14;36.61;99544.80;1632133;86;21112;-49
2022/06/14 07:24:58;;;;;;;2.72;1.80;;;;;;;28.19;36.34;99541.23;1590747;89;21188;-49
2022/06/14 07:27:31;;;;;;;4.53;1.80;;;;;;;28.26;36.25;99541.06;1587428;89;21012;-49
2022/06/14 07:30:18;;;;;;;2.35;1.80;;;;;;;28.35;36.54;99536.75;1582623;89;21639;-43
2022/06/14 07:32:49;;;;;;;2.25;2.05;;;;;;;28.42;36.42;99543.83;1584139;89;21616;-42
2022/06/14 07:35:17;;;;;;;3.87;1.70;;;;;;;28.46;36.32;99525.92;1586271;89;21738;-48
2022/06/14 07:38:10;;;;;;;3.83;1.90;;;;;;;28.54;36.31;99526.63;1591381;89;21423;-47
2022/06/14 07:40:55;;;;;;;3.87;2.37;;;;;;;28.57;36.93;99529.88;1575815;89;21175;-42
2022/06/14 07:43:39;;;;;;;7.00;1.87;;;;;;;28.69;36.33;99537.88;1572959;89;21551;-48
2022/06/14 07:50:26;;;;;;;1.75;1.65;;;;;;;28.62;35.57;99537.06;1598776;86;21110;-49
2022/06/14 07:52:59;;;;;;;7.62;1.80;;;;;;;28.53;35.28;99527.13;1600132;88;21051;-42
2022/06/14 07:55:41;;;;;;;2.22;1.80;;;;;;;28.56;35.19;99529.53;1604008;88;21153;-43
2022/06/14 07:58:15;;;;;;;3.92;1.90;;;;;;;28.62;35.79;99532.18;1581393;89;21041;-44
2022/06/14 08:03:54;;;;;;;4.35;2.20;;;;;;;28.65;35.40;99531.93;1663239;85;21118;-50
2022/06/14 08:06:44;;;;;;;4.50;2.30;;;;;;;28.72;35.36;99540.31;1695457;84;21598;-43
2022/06/14 08:09:29;;;;;;;2.42;2.00;;;;;;;28.74;35.72;99531.61;1628645;87;21698;-43
2022/06/14 08:11:59;;;;;;;5.58;2.00;;;;;;;28.73;36.05;99525.87;1616773;86;21093;-43
2022/06/14 08:14:52;;;;;;;3.72;2.55;;;;;;;28.75;36.56;99523.88;1623750;86;21056;-51
2022/06/14 08:17:24;;;;;;;2.45;2.25;;;;;;;28.78;35.84;99520.94;1663308;85;21496;-43
2022/06/14 08:19:59;;;;;;;2.77;1.98;;;;;;;28.95;36.03;99519.48;1643151;86;21056;-50
2022/06/14 08:22:31;;;;;;;2.55;1.92;;;;;;;29.16;36.62;99518.41;1655553;86;21107;-42
2022/06/14 08:25:02;;;;;;;3.83;1.95;;;;;;;29.25;35.77;99526.66;1667936;85;21098;-50
2022/06/14 08:27:34;;;;;;;2.90;2.20;;;;;;;29.12;35.54;99527.77;1646207;85;21158;-52
2022/06/14 08:30:09;;;;;;;3.97;2.33;;;;;;;28.93;35.77;99519.59;1668006;85;21079;-50
2022/06/14 08:32:41;;;;;;;5.20;2.30;;;;;;;28.77;36.19;99525.97;1649609;86;21056;-43
2022/06/14 08:35:34;;;;;;;7.08;2.75;;;;;;;28.60;37.17;99525.59;1645283;86;21469;-43
2022/06/14 08:38:19;;;;;;;3.55;2.30;;;;;;;28.46;37.64;99527.77;1650594;85;21032;-50
2022/06/14 08:41:15;;;;;;;2.27;2.10;;;;;;;28.33;38.00;99523.94;1654939;85;21633;-50
2022/06/14 08:43:49;;;;;;;6.53;2.20;;;;;;;28.31;38.40;99521.85;1659113;85;21025;-43
2022/06/14 08:46:43;;;;;;;4.47;2.22;;;;;;;28.39;38.49;99515.84;1660771;85;21017;-47
2022/06/14 08:49:43;;;;;;;5.37;2.50;;;;;;;28.50;38.31;99515.77;1680706;84;21139;-49
2022/06/14 08:52:44;;;;;;;5.40;2.30;;;;;;;28.55;37.77;99520.25;1618519;88;21068;-42
2022/06/14 08:55:46;;;;;;;4.03;2.17;;;;;;;28.49;37.63;99518.95;1646779;86;21068;-49
2022/06/14 08:58:43;;;;;;;10.95;2.30;;;;;;;28.38;38.39;99520.86;1657834;85;21027;-49
2022/06/14 09:02:01;;;;;;;7.20;2.40;;;;;;;28.27;38.66;99523.09;1671699;85;20991;-49
2022/06/14 09:05:27;;;;;;;1.95;1.85;;;;;;;28.32;39.11;99523.58;1664518;86;21131;-42
2022/06/14 09:08:26;;;;;;;2.40;2.10;;;;;;;28.50;39.67;99521.14;1657494;84;20971;-43
2022/06/14 09:11:37;;;;;;;8.45;3.15;;;;;;;28.59;39.32;99520.36;1651253;86;21031;-45
2022/06/14 09:14:43;;;;;;;3.25;2.60;;;;;;;28.55;39.60;99528.33;1657272;86;21136;-51
2022/06/14 09:17:44;;;;;;;18.50;2.58;;;;;;;28.48;40.34;99528.01;1672588;85;21104;-43
2022/06/14 09:20:29;;;;;;;4.00;2.87;;;;;;;28.36;40.77;99534.45;1666820;84;21037;-50
2022/06/14 09:23:37;;;;;;;3.58;2.40;;;;;;;28.14;40.69;99534.05;1702715;84;21073;-50
2022/06/14 09:26:34;;;;;;;3.33;2.55;;;;;;;28.00;41.33;99537.88;1679753;83;21029;-42
2022/06/14 09:29:31;;;;;;;5.30;3.30;;;;;;;27.88;41.31;99535.37;1674762;85;21101;-50
2022/06/14 09:32:23;;;;;;;3.00;2.70;;;;;;;27.83;41.78;99543.81;1642696;86;21067;-43
2022/06/14 09:35:12;;;;;;;7.00;2.83;;;;;;;27.82;42.64;99542.11;1662122;86;21068;-49
2022/06/14 09:38:02;;;;;;;5.72;3.22;;;;;;;27.78;43.99;99549.59;1661592;86;21071;-49
2022/06/14 09:40:47;;;;;;;13.75;3.83;;;;;;;27.70;43.42;99544.48;1661726;86;21084;-50
2022/06/14 09:43:54;;;;;;;8.78;3.30;;;;;;;27.61;44.22;99551.95;1645050;85;21524;-50
2022/06/14 09:47:10;;;;;;;3.95;3.20;;;;;;;27.48;44.88;99556.95;1613377;88;21080;-50
2022/06/14 09:50:06;;;;;;;13.72;3.60;;;;;;;27.53;46.70;99560.12;1625114;87;21166;-43
2022/06/14 09:53:09;;;;;;;15.58;4.20;;;;;;;27.66;46.87;99565.36;1625043;87;21009;-42
2022/06/14 09:56:05;;;;;;;20.48;3.72;;;;;;;27.76;47.58;99571.69;1625726;86;21686;-49
2022/06/14 09:59:05;;;;;;;13.13;4.20;;;;;;;27.79;46.25;99579.52;1672148;84;21460;-45
2022/06/14 10:01:52;;;;;;;20.23;3.62;;;;;;;27.44;46.29;99584.20;1676488;84;21004;-52
2022/06/14 10:04:46;;;;;;;11.80;3.22;;;;;;;27.00;46.96;99590.77;1675033;84;21095;-45
2022/06/14 10:07:41;;;;;;;16.52;3.70;;;;;;;26.69;48.00;99610.27;1700290;83;20995;-44
2022/06/14 10:10:18;;;;;;;14.40;3.30;;;;;;;26.45;49.05;99619.23;1670948;84;21035;-43
2022/06/14 10:13:22;;;;;;;12.70;3.02;;;;;;;26.27;49.03;99615.23;1630079;87;21518;-43
2022/06/14 10:16:20;;;;;;;4.72;2.80;;;;;;;26.05;49.93;99615.98;1627193;85;21507;-44
2022/06/14 10:18:59;;;;;;;9.80;3.17;;;;;;;25.76;50.00;99621.31;1670640;84;21090;-53
2022/06/14 10:21:46;;;;;;;11.53;3.50;;;;;;;25.46;51.34;99625.23;1629789;87;21058;-52
2022/06/14 10:24:50;;;;;;;9.35;2.52;;;;;;;25.19;51.15;99631.57;1658322;86;21076;-43
2022/06/14 10:30:43;;;;;;;5.92;2.45;;;;;;;24.76;52.46;99676.50;1629463;85;21056;-52
2022/06/14 10:33:44;;;;;;;11.40;2.40;;;;;;;24.59;52.40;99684.81;1676145;85;21655;-43
2022/06/14 10:36:42;;;;;;;5.58;2.52;;;;;;;24.41;52.72;99692.22;1728263;83;20983;-52
2022/06/14 10:39:50;;;;;;;7.62;2.37;;;;;;;24.22;52.37;99699.71;1680817;85;21075;-52
2022/06/14 10:42:41;;;;;;;12.23;2.50;;;;;;;24.06;52.40;99703.41;1713982;83;21567;-51
2022/06/14 10:45:34;;;;;;;8.18;2.25;;;;;;;24.22;53.23;99708.59;1639913;87;21174;-44
2022/06/14 10:48:32;;;;;;;11.12;2.15;;;;;;;24.52;53.09;99703.53;1650114;87;21026;-43
2022/06/14 10:51:51;;;;;;;5.08;1.80;;;;;;;24.69;51.30;99713.47;1695498;84;20996;-54
2022/06/14 10:54:39;;;;;;;9.53;1.90;;;;;;;24.74;51.19;99706.96;1721945;83;21048;-55
2022/06/14 10:57:36;;;;;;;5.92;2.20;;;;;;;24.44;51.85;99714.75;1724561;81;21365;-53
2022/06/14 11:00:09;;;;;;;7.05;2.35;;;;;;;24.44;51.85;99714.75;1726838;81;21071;-43
2022/06/14 11:03:03;;;;;;;7.03;1.95;;;;;;;24.31;53.39;99711.15;1726160;81;21048;-43
2022/06/14 11:05:45;;;;;;;3.22;1.60;;;;;;;24.19;54.15;99710.63;1727098;81;21047;-54
2022/06/14 11:08:38;;;;;;;6.60;1.95;;;;;;;24.05;55.47;99706.16;1722718;81;21037;-43
2022/06/14 11:11:18;;;;;;;8.70;1.98;;;;;;;23.98;55.50;99711.05;1727392;81;21041;-44
2022/06/14 11:14:05;;;;;;;7.03;2.30;;;;;;;23.98;55.50;99711.05;1659472;84;21187;-53
2022/06/14 11:17:15;;;;;;;3.30;1.98;;;;;;;23.88;55.38;99715.25;1652758;85;21548;-43
2022/06/14 11:19:49;;;;;;;3.22;1.90;;;;;;;23.92;55.06;99720.79;1738463;81;21688;-44
2022/06/14 11:22:42;;;;;;;2.60;1.90;;;;;;;23.92;55.06;99720.79;1726160;81;21027;-43
2022/06/14 11:25:35;;;;;;;2.37;2.10;;;;;;;23.97;53.84;99708.48;1703566;83;21035;-53
2022/06/14 11:28:36;;;;;;;5.50;1.85;;;;;;;24.05;54.04;99707.49;1691796;84;20964;-44
2022/06/14 11:31:39;;;;;;;8.80;1.77;;;;;;;24.10;53.35;99708.91;1683699;84;21104;-52
2022/06/14 11:34:26;;;;;;;2.90;1.90;;;;;;;24.06;54.16;99699.85;1683494;85;21144;-52
2022/06/14 11:37:11;;;;;;;3.30;1.92;;;;;;;24.06;54.16;99699.85;1684672;84;21041;-52
2022/06/14 11:39:59;;;;;;;3.70;1.70;;;;;;;24.19;53.65;99718.16;1662391;85;21064;-44
2022/06/14 11:42:34;;;;;;;2.50;1.35;;;;;;;24.06;54.56;99733.25;1677927;84;21060;-44
2022/06/14 11:45:43;;;;;;;3.65;1.30;;;;;;;23.80;55.15;99735.78;1677100;84;21116;-53
2022/06/14 11:48:39;;;;;;;1.50;1.27;;;;;;;23.80;55.15;99735.78;1645820;87;21120;-52
2022/06/14 11:51:51;;;;;;;2.05;1.60;;;;;;;23.59;55.39;99741.09;1593336;88;21060;-43
2022/06/14 11:54:25;;;;;;;2.87;1.45;;;;;;;23.39;56.18;99742.83;1609151;89;21627;-53
2022/06/14 11:56:57;;;;;;;3.05;1.35;;;;;;;23.16;57.55;99749.09;1598262;89;20993;-44
2022/06/14 11:59:50;;;;;;;5.35;1.60;;;;;;;23.05;58.31;99763.55;1611977;89;21671;-43
2022/06/14 12:02:37;;;;;;;;;;;;;;;22.93;58.86;99762.47;1569872;90;21539;-43
2022/06/14 12:05:39;;;;;;;2.12;1.52;;;;;;;22.85;59.94;99772.70;1585462;90;20407;-44
2022/06/14 12:08:45;;;;;;;3.25;1.45;;;;;;;22.74;59.85;99785.33;1661735;86;21020;-53
2022/06/14 12:11:25;;;;;;;2.60;1.57;;;;;;;22.45;61.41;99788.81;1623269;87;21144;-43
2022/06/14 12:14:31;;;;;;;2.10;1.75;;;;;;;22.14;63.24;99796.31;1654288;86;21611;-44
2022/06/14 12:17:36;;;;;;;1.50;1.20;;;;;;;21.79;64.44;99803.06;1626092;87;21021;-52
2022/06/14 12:20:11;;;;;;;2.65;1.70;;;;;;;21.40;65.94;99813.58;1638005;86;21107;-50
2022/06/14 12:22:53;;;;;;;1.40;1.30;;;;;;;21.04;67.57;99798.98;1649341;86;21008;-43
